createdAt,value
2023-01-17T00:01:40.184Z,6.10
2023-01-17T00:08:04.307Z,6.10
2023-01-17T00:14:15.104Z,6.80
2023-01-17T00:20:48.035Z,6.60
2023-01-17T00:27:14.232Z,6.90
2023-01-17T00:33:37.372Z,6.50
2023-01-17T00:39:40.574Z,6.50
2023-01-17T00:46:05.545Z,7.20
2023-01-17T00:52:35.971Z,6.90
2023-01-17T00:59:09.411Z,7.60
2023-01-17T01:05:42.639Z,6.90
2023-01-17T01:12:07.115Z,6.50
2023-01-17T01:18:36.027Z,6.40
2023-01-17T01:25:06.721Z,7.00
2023-01-17T01:31:39.165Z,5.60
2023-01-17T01:37:44.706Z,5.70
2023-01-17T01:43:54.026Z,5.00
2023-01-17T01:49:58.053Z,5.20
2023-01-17T01:56:01.591Z,4.80
2023-01-17T02:02:07.265Z,6.10
2023-01-17T02:08:34.563Z,4.80
2023-01-17T02:14:37.437Z,3.20
2023-01-17T02:20:52.297Z,3.40
2023-01-17T02:27:10.332Z,3.40
2023-01-17T02:33:43.606Z,4.20
2023-01-17T02:39:57.722Z,4.00
2023-01-17T02:46:04.044Z,3.60
2023-01-17T02:52:18.755Z,3.50
2023-01-17T02:58:49.227Z,4.10
2023-01-17T03:05:07.924Z,3.30
2023-01-17T03:11:31.931Z,3.60
2023-01-17T03:17:35.001Z,3.70
2023-01-17T03:23:45.953Z,3.20
2023-01-17T03:29:51.276Z,3.60
2023-01-17T03:35:57.971Z,3.80
2023-01-17T03:42:06.241Z,2.70
2023-01-17T03:48:09.161Z,2.70
2023-01-17T03:54:14.758Z,2.70
2023-01-17T04:00:20.591Z,2.90
2023-01-17T04:06:23.619Z,2.50
2023-01-17T04:12:41.562Z,2.40
2023-01-17T04:18:48.193Z,2.60
2023-01-17T04:25:07.155Z,2.20
2023-01-17T04:31:31.584Z,2.40
2023-01-17T04:37:37.790Z,2.10
2023-01-17T04:43:43.141Z,2.80
2023-01-17T04:50:26.844Z,2.20
2023-01-17T04:56:49.061Z,2.50
2023-01-17T05:03:02.750Z,2.40
2023-01-17T05:09:18.966Z,2.20
2023-01-17T05:15:30.379Z,1.70
2023-01-17T05:21:47.962Z,2.20
2023-01-17T05:27:50.996Z,1.90
2023-01-17T05:34:14.480Z,2.40
2023-01-17T05:40:29.300Z,2.10
2023-01-17T05:46:42.755Z,2.20
2023-01-17T05:52:53.172Z,2.40
2023-01-17T05:58:56.238Z,2.50
2023-01-17T06:05:03.619Z,2.30
2023-01-17T06:11:06.817Z,2.30
2023-01-17T06:17:38.599Z,2.60
2023-01-17T06:23:43.854Z,2.40
2023-01-17T06:29:46.702Z,2.40
2023-01-17T06:42:21.005Z,2.90
2023-01-17T06:48:23.831Z,2.20
2023-01-17T06:54:27.074Z,2.40
2023-01-17T07:00:31.570Z,2.60
2023-01-17T07:06:36.522Z,3.00
2023-01-17T07:12:43.976Z,2.80
2023-01-17T07:18:51.294Z,3.30
2023-01-17T07:24:58.618Z,3.60
2023-01-17T07:31:07.187Z,3.20
2023-01-17T07:37:10.161Z,2.70
2023-01-17T07:43:16.639Z,3.60
2023-01-17T07:49:19.453Z,3.00
2023-01-17T07:55:22.831Z,3.00
2023-01-17T08:01:26.033Z,3.70
2023-01-17T08:07:29.819Z,4.20
2023-01-17T08:13:33.021Z,4.10
2023-01-17T08:19:36.187Z,4.20
2023-01-17T08:25:39.449Z,4.50
2023-01-17T08:31:44.763Z,4.30
2023-01-17T08:37:48.693Z,4.30
2023-01-17T08:43:52.206Z,4.10
2023-01-17T08:49:54.951Z,4.00
2023-01-17T08:56:01.857Z,4.20
2023-01-17T09:02:14.839Z,4.70
2023-01-17T09:08:18.363Z,5.20
2023-01-17T09:14:21.182Z,5.90
2023-01-17T09:20:25.193Z,5.60
2023-01-17T09:26:29.657Z,8.50
2023-01-17T09:32:32.382Z,8.50
2023-01-17T09:38:36.855Z,9.10
2023-01-17T09:44:43.231Z,10.10
2023-01-17T09:51:10.605Z,10.30
2023-01-17T09:57:38.213Z,9.90
2023-01-17T10:03:57.961Z,9.80
2023-01-17T10:10:39.373Z,10.20
2023-01-17T10:16:56.903Z,8.70
2023-01-17T10:23:28.024Z,7.60
2023-01-17T10:29:33.387Z,7.00
2023-01-17T10:35:38.122Z,7.70
2023-01-17T10:41:44.171Z,8.00
2023-01-17T10:47:51.810Z,7.20
2023-01-17T10:54:07.775Z,7.00
2023-01-17T11:00:29.026Z,9.90
2023-01-17T11:06:33.163Z,7.90
2023-01-17T11:12:41.206Z,6.50
2023-01-17T11:18:44.121Z,4.40
2023-01-17T11:24:53.577Z,3.40
2023-01-17T11:30:58.694Z,3.00
2023-01-17T11:37:18.899Z,3.40
2023-01-17T11:43:25.743Z,4.30
2023-01-17T11:49:29.336Z,4.10
2023-01-17T11:55:32.208Z,4.60
2023-01-17T12:01:49.185Z,5.00
2023-01-17T12:08:10.369Z,4.90
2023-01-17T12:14:30.392Z,3.50
2023-01-17T12:20:33.332Z,3.00
2023-01-17T12:26:41.949Z,2.80
2023-01-17T12:33:05.998Z,3.10
2023-01-17T12:39:12.409Z,3.00
2023-01-17T12:51:37.708Z,3.30
2023-01-17T12:57:47.896Z,2.60
2023-01-17T13:04:23.204Z,2.60
2023-01-17T13:10:41.011Z,2.30
2023-01-17T13:17:04.995Z,2.70
2023-01-17T13:23:29.077Z,2.00
2023-01-17T13:29:57.060Z,1.60
2023-01-17T13:35:59.780Z,1.70
2023-01-17T13:42:11.508Z,1.50
2023-01-17T13:48:18.215Z,1.40
2023-01-17T13:54:34.177Z,1.20
2023-01-17T14:00:43.180Z,1.40
2023-01-17T14:06:52.953Z,1.70
2023-01-17T14:12:56.375Z,1.70
2023-01-17T14:18:59.144Z,1.60
2023-01-17T14:25:04.302Z,1.30
2023-01-17T14:31:10.209Z,1.30
2023-01-17T14:37:36.486Z,1.90
2023-01-17T14:43:42.362Z,1.70
2023-01-17T14:49:49.115Z,1.50
2023-01-17T14:55:58.090Z,1.90
2023-01-17T15:02:08.028Z,2.10
2023-01-17T15:08:19.402Z,1.60
2023-01-17T15:14:38.740Z,1.70
2023-01-17T15:20:47.263Z,1.40
2023-01-17T15:26:53.441Z,1.80
2023-01-17T15:32:58.707Z,1.90
2023-01-17T15:39:23.810Z,2.00
2023-01-17T15:45:31.926Z,1.90
2023-01-17T15:51:38.988Z,1.70
2023-01-17T15:57:47.510Z,2.10
2023-01-17T16:03:54.624Z,1.90
2023-01-17T16:10:35.678Z,3.70
2023-01-17T16:16:40.982Z,3.60
2023-01-17T16:22:43.978Z,3.50
2023-01-17T16:28:47.302Z,3.70
2023-01-17T16:34:50.297Z,4.70
2023-01-17T16:40:53.997Z,4.40
2023-01-17T16:47:01.150Z,4.00
2023-01-17T16:53:03.993Z,3.90
2023-01-17T16:59:06.777Z,3.80
2023-01-17T17:05:10.528Z,3.10
2023-01-17T17:11:19.305Z,3.80
2023-01-17T17:17:22.008Z,4.30
2023-01-17T17:23:25.344Z,3.60
2023-01-17T17:29:28.092Z,3.90
2023-01-17T17:35:33.813Z,3.60
2023-01-17T17:41:39.269Z,3.90
2023-01-17T17:47:44.495Z,4.90
2023-01-17T17:53:47.806Z,4.80
2023-01-17T17:59:57.011Z,4.60
2023-01-17T18:06:04.812Z,5.10
2023-01-17T18:12:08.011Z,4.90
2023-01-17T18:18:10.887Z,5.40
2023-01-17T18:24:23.254Z,7.30
2023-01-17T18:30:26.675Z,7.70
2023-01-17T18:36:32.085Z,6.10
2023-01-17T18:42:35.058Z,4.90
2023-01-17T18:48:38.866Z,4.70
2023-01-17T18:54:41.921Z,6.00
2023-01-17T19:00:44.978Z,5.20
2023-01-17T19:06:48.971Z,6.50
2023-01-17T19:12:52.137Z,7.60
2023-01-17T19:18:56.688Z,8.00
2023-01-17T19:24:59.659Z,6.10
2023-01-17T19:31:11.549Z,9.70
2023-01-17T19:37:15.042Z,10.60
2023-01-17T19:43:28.967Z,11.10
2023-01-17T19:49:33.899Z,11.10
2023-01-17T19:55:39.921Z,11.90
2023-01-17T20:01:43.477Z,12.50
2023-01-17T20:07:46.631Z,14.10
2023-01-17T20:13:55.257Z,12.60
2023-01-17T20:20:02.121Z,12.80
2023-01-17T20:26:06.131Z,14.50
2023-01-17T20:32:10.431Z,13.80
2023-01-17T20:38:13.309Z,14.30
2023-01-17T20:44:20.270Z,13.30
2023-01-17T20:50:27.664Z,13.30
2023-01-17T20:56:35.235Z,14.00
2023-01-17T21:02:39.234Z,14.30
2023-01-17T21:08:44.740Z,14.30
2023-01-17T21:14:48.757Z,14.00
2023-01-17T21:20:51.984Z,14.40
2023-01-17T21:26:55.164Z,14.10
2023-01-17T21:32:58.534Z,14.60
2023-01-17T21:39:08.034Z,14.80
2023-01-17T21:45:16.642Z,14.80
2023-01-17T21:51:19.778Z,13.70
2023-01-17T21:57:50.588Z,12.70
2023-01-17T22:04:01.164Z,11.80
2023-01-17T22:10:04.240Z,11.60
2023-01-17T22:16:10.647Z,10.90
2023-01-17T22:22:13.839Z,10.90
2023-01-17T22:28:16.895Z,11.40
2023-01-17T22:34:19.965Z,10.50
2023-01-17T22:40:23.551Z,10.20
2023-01-17T22:46:29.023Z,9.50
2023-01-17T22:52:32.314Z,9.10
2023-01-17T22:58:35.879Z,8.40
2023-01-17T23:04:41.974Z,8.20
2023-01-17T23:17:31.663Z,7.20
2023-01-17T23:23:34.757Z,8.80
2023-01-17T23:29:37.951Z,8.60
2023-01-17T23:35:43.004Z,7.90
2023-01-17T23:42:07.165Z,8.00
2023-01-17T23:48:10.752Z,7.30
2023-01-17T23:54:13.982Z,6.10
